sensor_id;sensor_type;location;lat;lon;timestamp;P1;durP1;ratioP1;P2;durP2;ratioP2
14139;SDS011;7150;53.514;9.988;2023-09-08T00:00:36;4.20;;;3.73;;
14139;SDS011;7150;53.514;9.988;2023-09-08T00:03:02;5.20;;;4.47;;
14139;SDS011;7150;53.514;9.988;2023-09-08T00:05:28;4.77;;;3.70;;
14139;SDS011;7150;53.514;9.988;2023-09-08T00:07:54;4.67;;;3.60;;
14139;SDS011;7150;53.514;9.988;2023-09-08T00:10:19;4.80;;;3.83;;
14139;SDS011;7150;53.514;9.988;2023-09-08T00:12:45;4.40;;;3.80;;
14139;SDS011;7150;53.514;9.988;2023-09-08T00:15:10;4.27;;;3.73;;
14139;SDS011;7150;53.514;9.988;2023-09-08T00:17:36;4.73;;;3.80;;
14139;SDS011;7150;53.514;9.988;2023-09-08T00:20:02;4.17;;;3.73;;
14139;SDS011;7150;53.514;9.988;2023-09-08T00:22:34;4.90;;;3.70;;
14139;SDS011;7150;53.514;9.988;2023-09-08T00:25:00;5.37;;;3.90;;
14139;SDS011;7150;53.514;9.988;2023-09-08T00:27:26;4.40;;;3.70;;
14139;SDS011;7150;53.514;9.988;2023-09-08T00:29:52;5.00;;;4.10;;
14139;SDS011;7150;53.514;9.988;2023-09-08T00:32:17;4.60;;;3.70;;
14139;SDS011;7150;53.514;9.988;2023-09-08T00:34:43;4.20;;;3.53;;
14139;SDS011;7150;53.514;9.988;2023-09-08T00:37:08;4.40;;;4.00;;
14139;SDS011;7150;53.514;9.988;2023-09-08T00:39:35;5.37;;;4.03;;
14139;SDS011;7150;53.514;9.988;2023-09-08T00:42:01;5.30;;;3.93;;
14139;SDS011;7150;53.514;9.988;2023-09-08T00:44:27;5.13;;;3.60;;
14139;SDS011;7150;53.514;9.988;2023-09-08T00:46:52;4.23;;;3.83;;
14139;SDS011;7150;53.514;9.988;2023-09-08T00:49:18;4.23;;;3.60;;
14139;SDS011;7150;53.514;9.988;2023-09-08T00:51:43;3.90;;;3.50;;
14139;SDS011;7150;53.514;9.988;2023-09-08T00:54:09;5.37;;;4.27;;
14139;SDS011;7150;53.514;9.988;2023-09-08T00:56:36;4.73;;;4.20;;
14139;SDS011;7150;53.514;9.988;2023-09-08T00:59:03;3.83;;;3.30;;
14139;SDS011;7150;53.514;9.988;2023-09-08T01:01:30;4.10;;;3.53;;
14139;SDS011;7150;53.514;9.988;2023-09-08T01:03:56;4.07;;;3.63;;
14139;SDS011;7150;53.514;9.988;2023-09-08T01:06:22;5.03;;;4.13;;
14139;SDS011;7150;53.514;9.988;2023-09-08T01:08:48;5.20;;;4.17;;
14139;SDS011;7150;53.514;9.988;2023-09-08T01:11:16;5.27;;;3.70;;
14139;SDS011;7150;53.514;9.988;2023-09-08T01:13:43;4.40;;;4.00;;
14139;SDS011;7150;53.514;9.988;2023-09-08T01:16:08;4.33;;;3.73;;
14139;SDS011;7150;53.514;9.988;2023-09-08T01:18:34;4.40;;;4.00;;
14139;SDS011;7150;53.514;9.988;2023-09-08T01:26:46;4.30;;;3.90;;
14139;SDS011;7150;53.514;9.988;2023-09-08T01:29:13;4.40;;;4.00;;
14139;SDS011;7150;53.514;9.988;2023-09-08T01:31:40;5.40;;;3.77;;
14139;SDS011;7150;53.514;9.988;2023-09-08T01:34:07;3.83;;;3.47;;
14139;SDS011;7150;53.514;9.988;2023-09-08T01:36:36;5.03;;;4.27;;
14139;SDS011;7150;53.514;9.988;2023-09-08T01:39:02;4.47;;;3.83;;
14139;SDS011;7150;53.514;9.988;2023-09-08T01:41:28;5.60;;;4.63;;
14139;SDS011;7150;53.514;9.988;2023-09-08T01:43:55;4.50;;;3.90;;
14139;SDS011;7150;53.514;9.988;2023-09-08T01:46:20;6.47;;;4.20;;
14139;SDS011;7150;53.514;9.988;2023-09-08T01:48:46;5.10;;;4.27;;
14139;SDS011;7150;53.514;9.988;2023-09-08T01:51:11;4.20;;;3.80;;
14139;SDS011;7150;53.514;9.988;2023-09-08T01:53:37;4.60;;;3.80;;
14139;SDS011;7150;53.514;9.988;2023-09-08T01:56:02;4.67;;;4.10;;
14139;SDS011;7150;53.514;9.988;2023-09-08T01:58:28;5.80;;;3.77;;
14139;SDS011;7150;53.514;9.988;2023-09-08T02:00:55;5.03;;;3.97;;
14139;SDS011;7150;53.514;9.988;2023-09-08T02:03:25;4.80;;;3.80;;
14139;SDS011;7150;53.514;9.988;2023-09-08T02:05:50;4.67;;;4.17;;
14139;SDS011;7150;53.514;9.988;2023-09-08T02:08:16;5.57;;;3.97;;
14139;SDS011;7150;53.514;9.988;2023-09-08T02:10:41;6.97;;;4.33;;
14139;SDS011;7150;53.514;9.988;2023-09-08T02:13:07;6.70;;;3.80;;
14139;SDS011;7150;53.514;9.988;2023-09-08T02:15:34;5.47;;;4.20;;
14139;SDS011;7150;53.514;9.988;2023-09-08T02:18:01;5.73;;;4.00;;
14139;SDS011;7150;53.514;9.988;2023-09-08T02:20:26;4.53;;;3.77;;
14139;SDS011;7150;53.514;9.988;2023-09-08T02:22:53;4.20;;;3.70;;
14139;SDS011;7150;53.514;9.988;2023-09-08T02:25:19;5.17;;;4.13;;
14139;SDS011;7150;53.514;9.988;2023-09-08T02:27:45;4.30;;;3.90;;
14139;SDS011;7150;53.514;9.988;2023-09-08T02:30:10;5.97;;;4.23;;
14139;SDS011;7150;53.514;9.988;2023-09-08T02:32:36;4.83;;;4.03;;
14139;SDS011;7150;53.514;9.988;2023-09-08T02:35:01;5.23;;;3.83;;
14139;SDS011;7150;53.514;9.988;2023-09-08T02:37:27;4.90;;;4.03;;
14139;SDS011;7150;53.514;9.988;2023-09-08T02:39:53;4.80;;;4.30;;
14139;SDS011;7150;53.514;9.988;2023-09-08T02:42:18;5.87;;;4.40;;
14139;SDS011;7150;53.514;9.988;2023-09-08T02:44:44;5.17;;;3.93;;
14139;SDS011;7150;53.514;9.988;2023-09-08T02:47:09;6.43;;;4.20;;
14139;SDS011;7150;53.514;9.988;2023-09-08T02:49:35;5.00;;;4.07;;
14139;SDS011;7150;53.514;9.988;2023-09-08T02:52:02;4.53;;;3.93;;
14139;SDS011;7150;53.514;9.988;2023-09-08T02:54:27;4.50;;;4.07;;
14139;SDS011;7150;53.514;9.988;2023-09-08T02:56:53;4.80;;;4.00;;
14139;SDS011;7150;53.514;9.988;2023-09-08T02:59:18;4.33;;;3.87;;
14139;SDS011;7150;53.514;9.988;2023-09-08T03:01:44;4.53;;;4.13;;
14139;SDS011;7150;53.514;9.988;2023-09-08T03:04:09;5.17;;;4.20;;
14139;SDS011;7150;53.514;9.988;2023-09-08T03:06:35;4.63;;;4.00;;
14139;SDS011;7150;53.514;9.988;2023-09-08T03:09:00;4.57;;;3.83;;
14139;SDS011;7150;53.514;9.988;2023-09-08T03:11:26;4.90;;;3.80;;
14139;SDS011;7150;53.514;9.988;2023-09-08T03:13:51;5.30;;;3.80;;
14139;SDS011;7150;53.514;9.988;2023-09-08T03:16:17;6.77;;;4.80;;
14139;SDS011;7150;53.514;9.988;2023-09-08T03:18:43;5.77;;;4.77;;
14139;SDS011;7150;53.514;9.988;2023-09-08T03:21:08;5.00;;;4.40;;
14139;SDS011;7150;53.514;9.988;2023-09-08T03:23:41;7.27;;;5.07;;
14139;SDS011;7150;53.514;9.988;2023-09-08T03:26:07;5.73;;;4.80;;
14139;SDS011;7150;53.514;9.988;2023-09-08T03:28:34;6.87;;;5.00;;
14139;SDS011;7150;53.514;9.988;2023-09-08T03:31:00;5.80;;;4.50;;
14139;SDS011;7150;53.514;9.988;2023-09-08T03:33:26;5.60;;;4.90;;
14139;SDS011;7150;53.514;9.988;2023-09-08T03:35:52;5.80;;;4.60;;
14139;SDS011;7150;53.514;9.988;2023-09-08T03:38:17;5.73;;;4.90;;
14139;SDS011;7150;53.514;9.988;2023-09-08T03:40:43;5.07;;;4.57;;
14139;SDS011;7150;53.514;9.988;2023-09-08T03:43:09;7.10;;;4.63;;
14139;SDS011;7150;53.514;9.988;2023-09-08T03:45:34;5.83;;;4.67;;
14139;SDS011;7150;53.514;9.988;2023-09-08T03:48:00;5.50;;;4.63;;
14139;SDS011;7150;53.514;9.988;2023-09-08T03:50:26;8.07;;;5.40;;
14139;SDS011;7150;53.514;9.988;2023-09-08T03:52:51;7.57;;;4.93;;
14139;SDS011;7150;53.514;9.988;2023-09-08T03:55:18;6.27;;;4.67;;
14139;SDS011;7150;53.514;9.988;2023-09-08T03:57:44;6.73;;;5.23;;
14139;SDS011;7150;53.514;9.988;2023-09-08T04:00:09;6.37;;;4.90;;
14139;SDS011;7150;53.514;9.988;2023-09-08T04:02:35;6.17;;;4.50;;
14139;SDS011;7150;53.514;9.988;2023-09-08T04:05:01;5.17;;;4.43;;
14139;SDS011;7150;53.514;9.988;2023-09-08T04:07:27;5.40;;;4.40;;
14139;SDS011;7150;53.514;9.988;2023-09-08T04:09:52;5.13;;;4.23;;
14139;SDS011;7150;53.514;9.988;2023-09-08T04:12:18;7.70;;;5.20;;
14139;SDS011;7150;53.514;9.988;2023-09-08T04:14:43;5.80;;;4.90;;
14139;SDS011;7150;53.514;9.988;2023-09-08T04:17:09;5.57;;;4.93;;
14139;SDS011;7150;53.514;9.988;2023-09-08T04:19:34;5.57;;;4.70;;
14139;SDS011;7150;53.514;9.988;2023-09-08T04:22:00;6.57;;;4.87;;
14139;SDS011;7150;53.514;9.988;2023-09-08T04:24:26;5.93;;;4.53;;
14139;SDS011;7150;53.514;9.988;2023-09-08T04:26:51;7.00;;;4.80;;
14139;SDS011;7150;53.514;9.988;2023-09-08T04:29:17;7.33;;;5.03;;
14139;SDS011;7150;53.514;9.988;2023-09-08T04:31:42;6.73;;;5.03;;
14139;SDS011;7150;53.514;9.988;2023-09-08T04:34:07;5.73;;;4.77;;
14139;SDS011;7150;53.514;9.988;2023-09-08T04:36:33;6.37;;;5.33;;
14139;SDS011;7150;53.514;9.988;2023-09-08T04:38:58;7.20;;;5.17;;
14139;SDS011;7150;53.514;9.988;2023-09-08T04:41:24;9.33;;;5.13;;
14139;SDS011;7150;53.514;9.988;2023-09-08T04:43:49;5.50;;;4.77;;
14139;SDS011;7150;53.514;9.988;2023-09-08T04:46:15;7.60;;;5.17;;
14139;SDS011;7150;53.514;9.988;2023-09-08T04:48:40;5.60;;;4.67;;
14139;SDS011;7150;53.514;9.988;2023-09-08T04:51:07;6.07;;;4.33;;
14139;SDS011;7150;53.514;9.988;2023-09-08T04:53:32;6.20;;;4.70;;
14139;SDS011;7150;53.514;9.988;2023-09-08T04:55:58;5.90;;;4.57;;
14139;SDS011;7150;53.514;9.988;2023-09-08T04:58:24;7.10;;;5.30;;
14139;SDS011;7150;53.514;9.988;2023-09-08T05:00:50;7.80;;;4.80;;
14139;SDS011;7150;53.514;9.988;2023-09-08T05:03:16;6.27;;;4.73;;
14139;SDS011;7150;53.514;9.988;2023-09-08T05:05:41;6.23;;;4.87;;
14139;SDS011;7150;53.514;9.988;2023-09-08T05:08:07;6.23;;;4.83;;
14139;SDS011;7150;53.514;9.988;2023-09-08T05:10:32;8.17;;;5.50;;
14139;SDS011;7150;53.514;9.988;2023-09-08T05:12:57;5.80;;;5.00;;
14139;SDS011;7150;53.514;9.988;2023-09-08T05:15:23;5.97;;;4.97;;
14139;SDS011;7150;53.514;9.988;2023-09-08T05:17:50;8.03;;;4.77;;
14139;SDS011;7150;53.514;9.988;2023-09-08T05:20:15;6.73;;;5.10;;
14139;SDS011;7150;53.514;9.988;2023-09-08T05:22:41;5.40;;;4.70;;
14139;SDS011;7150;53.514;9.988;2023-09-08T05:25:07;5.27;;;4.40;;
14139;SDS011;7150;53.514;9.988;2023-09-08T05:27:32;6.13;;;4.87;;
14139;SDS011;7150;53.514;9.988;2023-09-08T05:29:58;6.13;;;5.03;;
14139;SDS011;7150;53.514;9.988;2023-09-08T05:32:23;5.30;;;4.80;;
14139;SDS011;7150;53.514;9.988;2023-09-08T05:34:49;8.37;;;5.17;;
14139;SDS011;7150;53.514;9.988;2023-09-08T05:37:15;7.10;;;5.03;;
14139;SDS011;7150;53.514;9.988;2023-09-08T05:39:41;6.43;;;4.97;;
14139;SDS011;7150;53.514;9.988;2023-09-08T05:42:06;5.40;;;4.90;;
14139;SDS011;7150;53.514;9.988;2023-09-08T05:44:32;9.40;;;6.23;;
14139;SDS011;7150;53.514;9.988;2023-09-08T05:46:57;6.40;;;5.40;;
14139;SDS011;7150;53.514;9.988;2023-09-08T05:49:23;7.30;;;5.40;;
14139;SDS011;7150;53.514;9.988;2023-09-08T05:51:48;6.23;;;5.30;;
14139;SDS011;7150;53.514;9.988;2023-09-08T05:54:14;6.53;;;5.40;;
14139;SDS011;7150;53.514;9.988;2023-09-08T05:56:40;7.50;;;5.33;;
14139;SDS011;7150;53.514;9.988;2023-09-08T05:59:05;7.40;;;5.90;;
14139;SDS011;7150;53.514;9.988;2023-09-08T06:01:31;7.47;;;5.23;;
14139;SDS011;7150;53.514;9.988;2023-09-08T06:03:56;6.23;;;4.50;;
14139;SDS011;7150;53.514;9.988;2023-09-08T06:06:22;6.63;;;5.50;;
14139;SDS011;7150;53.514;9.988;2023-09-08T06:08:48;7.83;;;5.87;;
14139;SDS011;7150;53.514;9.988;2023-09-08T06:11:14;6.73;;;5.07;;
14139;SDS011;7150;53.514;9.988;2023-09-08T06:13:39;7.47;;;5.67;;
14139;SDS011;7150;53.514;9.988;2023-09-08T06:16:05;6.33;;;5.07;;
14139;SDS011;7150;53.514;9.988;2023-09-08T06:18:30;6.83;;;5.50;;
14139;SDS011;7150;53.514;9.988;2023-09-08T06:20:56;6.70;;;5.80;;
14139;SDS011;7150;53.514;9.988;2023-09-08T06:23:22;6.17;;;5.57;;
14139;SDS011;7150;53.514;9.988;2023-09-08T06:25:48;6.57;;;5.63;;
14139;SDS011;7150;53.514;9.988;2023-09-08T06:28:14;6.50;;;5.20;;
14139;SDS011;7150;53.514;9.988;2023-09-08T06:30:39;6.90;;;5.73;;
14139;SDS011;7150;53.514;9.988;2023-09-08T06:33:07;6.17;;;5.00;;
14139;SDS011;7150;53.514;9.988;2023-09-08T06:35:33;6.53;;;5.60;;
14139;SDS011;7150;53.514;9.988;2023-09-08T06:37:59;6.67;;;5.30;;
14139;SDS011;7150;53.514;9.988;2023-09-08T06:40:24;7.63;;;5.83;;
14139;SDS011;7150;53.514;9.988;2023-09-08T06:42:50;6.77;;;5.67;;
14139;SDS011;7150;53.514;9.988;2023-09-08T06:45:15;6.73;;;5.20;;
14139;SDS011;7150;53.514;9.988;2023-09-08T06:47:42;6.03;;;5.20;;
14139;SDS011;7150;53.514;9.988;2023-09-08T06:50:08;6.83;;;5.57;;
14139;SDS011;7150;53.514;9.988;2023-09-08T06:52:34;6.90;;;5.33;;
14139;SDS011;7150;53.514;9.988;2023-09-08T06:55:00;7.20;;;5.60;;
14139;SDS011;7150;53.514;9.988;2023-09-08T06:57:26;6.80;;;5.10;;
14139;SDS011;7150;53.514;9.988;2023-09-08T06:59:51;6.57;;;5.43;;
14139;SDS011;7150;53.514;9.988;2023-09-08T07:02:17;7.63;;;5.33;;
14139;SDS011;7150;53.514;9.988;2023-09-08T07:04:42;7.30;;;6.10;;
14139;SDS011;7150;53.514;9.988;2023-09-08T07:07:08;7.77;;;5.23;;
14139;SDS011;7150;53.514;9.988;2023-09-08T07:09:35;6.67;;;5.10;;
14139;SDS011;7150;53.514;9.988;2023-09-08T07:12:01;6.97;;;5.57;;
14139;SDS011;7150;53.514;9.988;2023-09-08T07:14:28;8.23;;;5.87;;
14139;SDS011;7150;53.514;9.988;2023-09-08T07:16:53;7.53;;;5.47;;
14139;SDS011;7150;53.514;9.988;2023-09-08T07:19:19;6.80;;;5.63;;
14139;SDS011;7150;53.514;9.988;2023-09-08T07:21:44;7.60;;;5.43;;
14139;SDS011;7150;53.514;9.988;2023-09-08T07:24:10;7.47;;;5.37;;
14139;SDS011;7150;53.514;9.988;2023-09-08T07:26:35;6.67;;;5.07;;
14139;SDS011;7150;53.514;9.988;2023-09-08T07:29:01;6.67;;;5.90;;
14139;SDS011;7150;53.514;9.988;2023-09-08T07:31:26;7.27;;;5.80;;
14139;SDS011;7150;53.514;9.988;2023-09-08T07:33:52;6.60;;;5.53;;
14139;SDS011;7150;53.514;9.988;2023-09-08T07:36:17;7.10;;;5.87;;
14139;SDS011;7150;53.514;9.988;2023-09-08T07:38:43;7.10;;;5.20;;
14139;SDS011;7150;53.514;9.988;2023-09-08T07:41:08;7.60;;;5.77;;
14139;SDS011;7150;53.514;9.988;2023-09-08T07:43:33;7.17;;;5.83;;
14139;SDS011;7150;53.514;9.988;2023-09-08T07:46:00;6.87;;;5.70;;
14139;SDS011;7150;53.514;9.988;2023-09-08T07:48:25;7.60;;;5.77;;
14139;SDS011;7150;53.514;9.988;2023-09-08T07:50:50;9.90;;;6.07;;
14139;SDS011;7150;53.514;9.988;2023-09-08T07:53:16;7.27;;;5.97;;
14139;SDS011;7150;53.514;9.988;2023-09-08T07:55:42;7.83;;;5.00;;
14139;SDS011;7150;53.514;9.988;2023-09-08T07:58:07;6.97;;;5.07;;
14139;SDS011;7150;53.514;9.988;2023-09-08T08:00:33;7.10;;;5.60;;
14139;SDS011;7150;53.514;9.988;2023-09-08T08:02:59;5.37;;;4.83;;
14139;SDS011;7150;53.514;9.988;2023-09-08T08:05:24;7.03;;;5.43;;
14139;SDS011;7150;53.514;9.988;2023-09-08T08:07:50;7.23;;;5.33;;
14139;SDS011;7150;53.514;9.988;2023-09-08T08:10:16;6.87;;;4.87;;
14139;SDS011;7150;53.514;9.988;2023-09-08T08:12:42;6.43;;;5.43;;
14139;SDS011;7150;53.514;9.988;2023-09-08T08:15:08;5.70;;;5.10;;
14139;SDS011;7150;53.514;9.988;2023-09-08T08:17:37;6.00;;;5.13;;
14139;SDS011;7150;53.514;9.988;2023-09-08T08:20:04;5.63;;;5.00;;
14139;SDS011;7150;53.514;9.988;2023-09-08T08:22:37;6.10;;;4.93;;
14139;SDS011;7150;53.514;9.988;2023-09-08T08:25:03;5.63;;;5.03;;
14139;SDS011;7150;53.514;9.988;2023-09-08T08:27:29;7.57;;;5.23;;
14139;SDS011;7150;53.514;9.988;2023-09-08T08:29:56;5.87;;;5.27;;
14139;SDS011;7150;53.514;9.988;2023-09-08T08:32:24;8.23;;;5.20;;
14139;SDS011;7150;53.514;9.988;2023-09-08T08:34:50;5.47;;;4.87;;
14139;SDS011;7150;53.514;9.988;2023-09-08T08:37:16;5.47;;;4.93;;
14139;SDS011;7150;53.514;9.988;2023-09-08T08:39:41;6.60;;;5.23;;
14139;SDS011;7150;53.514;9.988;2023-09-08T08:42:07;8.20;;;5.73;;
14139;SDS011;7150;53.514;9.988;2023-09-08T08:44:34;6.93;;;5.03;;
14139;SDS011;7150;53.514;9.988;2023-09-08T08:47:00;7.33;;;4.90;;
14139;SDS011;7150;53.514;9.988;2023-09-08T08:49:28;5.90;;;5.03;;
14139;SDS011;7150;53.514;9.988;2023-09-08T08:51:56;6.30;;;5.10;;
14139;SDS011;7150;53.514;9.988;2023-09-08T08:54:23;5.03;;;4.50;;
14139;SDS011;7150;53.514;9.988;2023-09-08T08:56:50;5.03;;;4.53;;
14139;SDS011;7150;53.514;9.988;2023-09-08T08:59:16;7.87;;;5.50;;
14139;SDS011;7150;53.514;9.988;2023-09-08T09:01:41;6.40;;;5.30;;
14139;SDS011;7150;53.514;9.988;2023-09-08T09:04:08;5.70;;;4.90;;
14139;SDS011;7150;53.514;9.988;2023-09-08T09:06:35;5.73;;;4.93;;
14139;SDS011;7150;53.514;9.988;2023-09-08T09:09:01;5.30;;;4.80;;
14139;SDS011;7150;53.514;9.988;2023-09-08T09:11:29;5.87;;;5.10;;
14139;SDS011;7150;53.514;9.988;2023-09-08T09:13:55;6.17;;;5.47;;
14139;SDS011;7150;53.514;9.988;2023-09-08T09:16:21;6.10;;;4.70;;
14139;SDS011;7150;53.514;9.988;2023-09-08T09:18:53;6.37;;;5.03;;
14139;SDS011;7150;53.514;9.988;2023-09-08T09:21:23;5.30;;;4.80;;
14139;SDS011;7150;53.514;9.988;2023-09-08T09:23:50;8.37;;;5.10;;
14139;SDS011;7150;53.514;9.988;2023-09-08T09:26:26;6.30;;;5.20;;
14139;SDS011;7150;53.514;9.988;2023-09-08T09:28:51;5.30;;;4.80;;
14139;SDS011;7150;53.514;9.988;2023-09-08T09:31:22;6.23;;;5.47;;
14139;SDS011;7150;53.514;9.988;2023-09-08T09:34:00;6.33;;;5.10;;
14139;SDS011;7150;53.514;9.988;2023-09-08T09:36:29;5.57;;;4.87;;
14139;SDS011;7150;53.514;9.988;2023-09-08T09:38:57;5.60;;;4.90;;
14139;SDS011;7150;53.514;9.988;2023-09-08T09:41:28;6.47;;;5.30;;
14139;SDS011;7150;53.514;9.988;2023-09-08T09:43:56;6.10;;;5.27;;
14139;SDS011;7150;53.514;9.988;2023-09-08T09:46:22;6.13;;;5.17;;
14139;SDS011;7150;53.514;9.988;2023-09-08T09:48:50;6.77;;;5.37;;
14139;SDS011;7150;53.514;9.988;2023-09-08T09:51:19;6.07;;;5.47;;
14139;SDS011;7150;53.514;9.988;2023-09-08T09:53:45;7.00;;;5.33;;
14139;SDS011;7150;53.514;9.988;2023-09-08T09:56:12;7.03;;;5.40;;
14139;SDS011;7150;53.514;9.988;2023-09-08T09:58:39;5.97;;;4.67;;
14139;SDS011;7150;53.514;9.988;2023-09-08T10:01:06;9.97;;;5.80;;
14139;SDS011;7150;53.514;9.988;2023-09-08T10:03:32;5.57;;;4.77;;
14139;SDS011;7150;53.514;9.988;2023-09-08T10:05:58;7.03;;;5.00;;
14139;SDS011;7150;53.514;9.988;2023-09-08T10:08:24;5.87;;;4.43;;
14139;SDS011;7150;53.514;9.988;2023-09-08T10:10:50;6.40;;;4.80;;
14139;SDS011;7150;53.514;9.988;2023-09-08T10:13:18;5.40;;;4.90;;
14139;SDS011;7150;53.514;9.988;2023-09-08T10:15:51;6.90;;;5.47;;
14139;SDS011;7150;53.514;9.988;2023-09-08T10:18:21;6.73;;;5.17;;
14139;SDS011;7150;53.514;9.988;2023-09-08T10:20:47;6.40;;;5.30;;
14139;SDS011;7150;53.514;9.988;2023-09-08T10:23:22;6.00;;;5.40;;
14139;SDS011;7150;53.514;9.988;2023-09-08T10:25:53;5.80;;;4.93;;
14139;SDS011;7150;53.514;9.988;2023-09-08T10:28:24;6.33;;;5.33;;
14139;SDS011;7150;53.514;9.988;2023-09-08T10:30:50;10.17;;;5.63;;
14139;SDS011;7150;53.514;9.988;2023-09-08T10:33:17;6.80;;;5.27;;
14139;SDS011;7150;53.514;9.988;2023-09-08T10:35:43;6.83;;;4.73;;
14139;SDS011;7150;53.514;9.988;2023-09-08T10:40:53;6.07;;;5.30;;
14139;SDS011;7150;53.514;9.988;2023-09-08T10:43:57;6.17;;;5.03;;
14139;SDS011;7150;53.514;9.988;2023-09-08T10:46:26;5.67;;;4.73;;
14139;SDS011;7150;53.514;9.988;2023-09-08T10:48:53;7.50;;;4.90;;
14139;SDS011;7150;53.514;9.988;2023-09-08T10:51:20;5.47;;;4.97;;
14139;SDS011;7150;53.514;9.988;2023-09-08T10:53:47;6.00;;;5.40;;
14139;SDS011;7150;53.514;9.988;2023-09-08T10:56:14;6.83;;;5.00;;
14139;SDS011;7150;53.514;9.988;2023-09-08T10:58:41;5.87;;;4.70;;
14139;SDS011;7150;53.514;9.988;2023-09-08T11:01:08;5.93;;;4.83;;
14139;SDS011;7150;53.514;9.988;2023-09-08T11:06:09;5.20;;;4.70;;
14139;SDS011;7150;53.514;9.988;2023-09-08T11:08:42;5.27;;;4.70;;
14139;SDS011;7150;53.514;9.988;2023-09-08T11:11:12;5.37;;;4.87;;
14139;SDS011;7150;53.514;9.988;2023-09-08T11:13:39;6.60;;;5.57;;
14139;SDS011;7150;53.514;9.988;2023-09-08T11:16:05;5.90;;;4.93;;
14139;SDS011;7150;53.514;9.988;2023-09-08T11:18:32;5.87;;;4.87;;
14139;SDS011;7150;53.514;9.988;2023-09-08T11:20:59;6.20;;;4.90;;
14139;SDS011;7150;53.514;9.988;2023-09-08T11:23:26;5.50;;;4.47;;
14139;SDS011;7150;53.514;9.988;2023-09-08T11:25:52;6.23;;;4.70;;
14139;SDS011;7150;53.514;9.988;2023-09-08T11:28:19;5.50;;;4.53;;
14139;SDS011;7150;53.514;9.988;2023-09-08T11:30:47;6.13;;;5.40;;
14139;SDS011;7150;53.514;9.988;2023-09-08T11:33:13;5.03;;;4.47;;
14139;SDS011;7150;53.514;9.988;2023-09-08T11:35:40;4.83;;;4.40;;
14139;SDS011;7150;53.514;9.988;2023-09-08T11:38:07;4.97;;;4.30;;
14139;SDS011;7150;53.514;9.988;2023-09-08T11:40:35;5.07;;;4.57;;
14139;SDS011;7150;53.514;9.988;2023-09-08T11:43:02;4.87;;;4.37;;
14139;SDS011;7150;53.514;9.988;2023-09-08T11:45:28;5.67;;;4.73;;
14139;SDS011;7150;53.514;9.988;2023-09-08T11:47:54;5.00;;;4.50;;
14139;SDS011;7150;53.514;9.988;2023-09-08T11:50:20;5.10;;;4.07;;
14139;SDS011;7150;53.514;9.988;2023-09-08T11:52:46;4.53;;;4.10;;
14139;SDS011;7150;53.514;9.988;2023-09-08T11:55:13;5.57;;;4.10;;
14139;SDS011;7150;53.514;9.988;2023-09-08T11:57:39;5.03;;;4.40;;
14139;SDS011;7150;53.514;9.988;2023-09-08T12:00:06;6.23;;;4.10;;
14139;SDS011;7150;53.514;9.988;2023-09-08T12:02:35;5.30;;;4.07;;
14139;SDS011;7150;53.514;9.988;2023-09-08T12:05:01;5.73;;;4.57;;
14139;SDS011;7150;53.514;9.988;2023-09-08T12:07:30;5.17;;;4.40;;
14139;SDS011;7150;53.514;9.988;2023-09-08T12:09:56;5.40;;;3.80;;
14139;SDS011;7150;53.514;9.988;2023-09-08T12:12:23;3.97;;;3.57;;
14139;SDS011;7150;53.514;9.988;2023-09-08T12:14:50;4.53;;;3.77;;
14139;SDS011;7150;53.514;9.988;2023-09-08T12:17:15;5.37;;;3.80;;
14139;SDS011;7150;53.514;9.988;2023-09-08T12:19:42;4.63;;;3.77;;
14139;SDS011;7150;53.514;9.988;2023-09-08T12:22:08;4.23;;;3.33;;
14139;SDS011;7150;53.514;9.988;2023-09-08T12:24:46;3.83;;;3.43;;
14139;SDS011;7150;53.514;9.988;2023-09-08T12:27:24;3.80;;;3.40;;
14139;SDS011;7150;53.514;9.988;2023-09-08T12:29:54;4.43;;;3.30;;
14139;SDS011;7150;53.514;9.988;2023-09-08T12:32:19;5.77;;;3.47;;
14139;SDS011;7150;53.514;9.988;2023-09-08T12:34:45;6.87;;;3.93;;
14139;SDS011;7150;53.514;9.988;2023-09-08T12:37:11;4.53;;;4.00;;
14139;SDS011;7150;53.514;9.988;2023-09-08T12:39:37;5.17;;;3.60;;
14139;SDS011;7150;53.514;9.988;2023-09-08T12:42:03;4.87;;;3.80;;
14139;SDS011;7150;53.514;9.988;2023-09-08T12:44:29;4.07;;;3.67;;
14139;SDS011;7150;53.514;9.988;2023-09-08T12:46:54;3.70;;;3.30;;
14139;SDS011;7150;53.514;9.988;2023-09-08T12:49:20;4.50;;;3.87;;
14139;SDS011;7150;53.514;9.988;2023-09-08T12:51:45;4.40;;;3.63;;
14139;SDS011;7150;53.514;9.988;2023-09-08T12:54:11;4.27;;;3.63;;
14139;SDS011;7150;53.514;9.988;2023-09-08T12:56:36;5.33;;;3.70;;
14139;SDS011;7150;53.514;9.988;2023-09-08T12:59:02;4.37;;;3.43;;
14139;SDS011;7150;53.514;9.988;2023-09-08T13:01:28;4.97;;;3.80;;
14139;SDS011;7150;53.514;9.988;2023-09-08T13:03:54;4.77;;;3.73;;
14139;SDS011;7150;53.514;9.988;2023-09-08T13:06:19;3.73;;;3.30;;
14139;SDS011;7150;53.514;9.988;2023-09-08T13:08:44;3.80;;;3.40;;
14139;SDS011;7150;53.514;9.988;2023-09-08T13:11:10;4.00;;;3.60;;
14139;SDS011;7150;53.514;9.988;2023-09-08T13:13:35;4.13;;;3.70;;
14139;SDS011;7150;53.514;9.988;2023-09-08T13:16:01;5.60;;;3.63;;
14139;SDS011;7150;53.514;9.988;2023-09-08T13:18:26;4.07;;;3.63;;
14139;SDS011;7150;53.514;9.988;2023-09-08T13:20:52;4.47;;;3.63;;
14139;SDS011;7150;53.514;9.988;2023-09-08T13:23:17;4.50;;;3.73;;
14139;SDS011;7150;53.514;9.988;2023-09-08T13:25:43;4.30;;;3.90;;
14139;SDS011;7150;53.514;9.988;2023-09-08T13:28:09;4.90;;;3.80;;
14139;SDS011;7150;53.514;9.988;2023-09-08T13:30:35;4.57;;;4.00;;
14139;SDS011;7150;53.514;9.988;2023-09-08T13:33:01;3.73;;;3.33;;
14139;SDS011;7150;53.514;9.988;2023-09-08T13:35:26;4.20;;;3.53;;
14139;SDS011;7150;53.514;9.988;2023-09-08T13:37:52;4.50;;;3.67;;
14139;SDS011;7150;53.514;9.988;2023-09-08T13:40:17;4.80;;;4.30;;
14139;SDS011;7150;53.514;9.988;2023-09-08T13:42:43;4.67;;;3.70;;
14139;SDS011;7150;53.514;9.988;2023-09-08T13:45:10;5.13;;;3.60;;
14139;SDS011;7150;53.514;9.988;2023-09-08T13:47:35;4.67;;;3.37;;
14139;SDS011;7150;53.514;9.988;2023-09-08T13:50:02;4.43;;;3.83;;
14139;SDS011;7150;53.514;9.988;2023-09-08T13:52:28;5.40;;;3.87;;
14139;SDS011;7150;53.514;9.988;2023-09-08T13:54:54;4.03;;;3.63;;
14139;SDS011;7150;53.514;9.988;2023-09-08T13:57:19;4.03;;;3.40;;
14139;SDS011;7150;53.514;9.988;2023-09-08T13:59:46;3.30;;;2.97;;
14139;SDS011;7150;53.514;9.988;2023-09-08T14:02:11;4.30;;;3.90;;
14139;SDS011;7150;53.514;9.988;2023-09-08T14:04:37;3.77;;;3.43;;
14139;SDS011;7150;53.514;9.988;2023-09-08T14:07:04;4.43;;;3.40;;
14139;SDS011;7150;53.514;9.988;2023-09-08T14:09:30;4.20;;;3.53;;
14139;SDS011;7150;53.514;9.988;2023-09-08T14:11:56;6.10;;;3.70;;
14139;SDS011;7150;53.514;9.988;2023-09-08T14:14:21;4.17;;;3.47;;
14139;SDS011;7150;53.514;9.988;2023-09-08T14:16:49;4.97;;;3.63;;
14139;SDS011;7150;53.514;9.988;2023-09-08T14:19:14;4.07;;;3.40;;
14139;SDS011;7150;53.514;9.988;2023-09-08T14:21:40;4.00;;;3.60;;
14139;SDS011;7150;53.514;9.988;2023-09-08T14:24:05;3.83;;;3.43;;
14139;SDS011;7150;53.514;9.988;2023-09-08T14:26:31;3.80;;;3.50;;
14139;SDS011;7150;53.514;9.988;2023-09-08T14:28:56;4.67;;;4.27;;
14139;SDS011;7150;53.514;9.988;2023-09-08T14:31:22;4.33;;;3.93;;
14139;SDS011;7150;53.514;9.988;2023-09-08T14:33:47;5.80;;;4.57;;
14139;SDS011;7150;53.514;9.988;2023-09-08T14:36:17;6.70;;;5.37;;
14139;SDS011;7150;53.514;9.988;2023-09-08T14:38:43;5.53;;;4.97;;
14139;SDS011;7150;53.514;9.988;2023-09-08T14:41:09;7.07;;;5.40;;
14139;SDS011;7150;53.514;9.988;2023-09-08T14:43:34;5.80;;;5.00;;
14139;SDS011;7150;53.514;9.988;2023-09-08T14:46:00;6.07;;;4.77;;
14139;SDS011;7150;53.514;9.988;2023-09-08T14:48:27;5.43;;;4.63;;
14139;SDS011;7150;53.514;9.988;2023-09-08T14:50:54;5.17;;;4.10;;
14139;SDS011;7150;53.514;9.988;2023-09-08T14:53:19;4.50;;;4.00;;
14139;SDS011;7150;53.514;9.988;2023-09-08T14:55:45;4.80;;;4.27;;
14139;SDS011;7150;53.514;9.988;2023-09-08T14:58:13;4.30;;;3.90;;
14139;SDS011;7150;53.514;9.988;2023-09-08T15:00:39;5.37;;;3.40;;
14139;SDS011;7150;53.514;9.988;2023-09-08T15:03:06;3.93;;;3.30;;
14139;SDS011;7150;53.514;9.988;2023-09-08T15:05:32;3.53;;;3.23;;